sensor_id;sensor_type;location;lat;lon;timestamp;temperature;humidity
64888;DHT22;51386;53.082;8.816;2023-05-10T00:00:55;19.90;48.70
64888;DHT22;51386;53.082;8.816;2023-05-10T00:03:22;19.80;47.30
64888;DHT22;51386;53.082;8.816;2023-05-10T00:05:49;19.80;45.10
64888;DHT22;51386;53.082;8.816;2023-05-10T00:08:16;19.80;46.10
64888;DHT22;51386;53.082;8.816;2023-05-10T00:10:44;19.80;46.10
64888;DHT22;51386;53.082;8.816;2023-05-10T00:13:11;19.80;45.90
64888;DHT22;51386;53.082;8.816;2023-05-10T00:15:39;19.80;45.70
64888;DHT22;51386;53.082;8.816;2023-05-10T00:18:05;19.70;44.20
64888;DHT22;51386;53.082;8.816;2023-05-10T00:20:33;19.70;44.20
64888;DHT22;51386;53.082;8.816;2023-05-10T00:23:00;19.70;44.20
64888;DHT22;51386;53.082;8.816;2023-05-10T00:25:27;19.70;45.20
64888;DHT22;51386;53.082;8.816;2023-05-10T00:27:55;19.70;45.00
64888;DHT22;51386;53.082;8.816;2023-05-10T00:30:23;19.70;44.80
64888;DHT22;51386;53.082;8.816;2023-05-10T00:32:51;19.60;42.60
64888;DHT22;51386;53.082;8.816;2023-05-10T00:35:18;19.60;42.70
64888;DHT22;51386;53.082;8.816;2023-05-10T00:37:45;19.60;43.60
64888;DHT22;51386;53.082;8.816;2023-05-10T00:40:13;19.60;43.90
64888;DHT22;51386;53.082;8.816;2023-05-10T00:42:40;19.60;43.80
64888;DHT22;51386;53.082;8.816;2023-05-10T00:45:09;19.50;43.80
64888;DHT22;51386;53.082;8.816;2023-05-10T00:47:36;19.50;43.70
64888;DHT22;51386;53.082;8.816;2023-05-10T00:50:04;19.50;43.80
64888;DHT22;51386;53.082;8.816;2023-05-10T00:52:32;19.50;43.50
64888;DHT22;51386;53.082;8.816;2023-05-10T00:55:00;19.50;43.60
64888;DHT22;51386;53.082;8.816;2023-05-10T00:57:27;19.50;42.90
64888;DHT22;51386;53.082;8.816;2023-05-10T00:59:55;19.40;42.00
64888;DHT22;51386;53.082;8.816;2023-05-10T01:02:23;19.40;41.90
64888;DHT22;51386;53.082;8.816;2023-05-10T01:04:51;19.30;42.10
64888;DHT22;51386;53.082;8.816;2023-05-10T01:07:18;19.30;42.70
64888;DHT22;51386;53.082;8.816;2023-05-10T01:09:45;19.20;43.20
64888;DHT22;51386;53.082;8.816;2023-05-10T01:12:12;19.20;43.40
64888;DHT22;51386;53.082;8.816;2023-05-10T01:14:39;19.20;43.30
64888;DHT22;51386;53.082;8.816;2023-05-10T01:17:07;19.10;43.20
64888;DHT22;51386;53.082;8.816;2023-05-10T01:19:37;19.10;42.60
64888;DHT22;51386;53.082;8.816;2023-05-10T01:22:11;19.10;43.20
64888;DHT22;51386;53.082;8.816;2023-05-10T01:25:15;19.10;42.70
64888;DHT22;51386;53.082;8.816;2023-05-10T01:28:17;19.00;42.80
64888;DHT22;51386;53.082;8.816;2023-05-10T01:31:21;19.00;42.70
64888;DHT22;51386;53.082;8.816;2023-05-10T01:34:00;18.90;42.90
64888;DHT22;51386;53.082;8.816;2023-05-10T01:36:38;18.90;43.40
64888;DHT22;51386;53.082;8.816;2023-05-10T01:39:13;18.90;43.20
64888;DHT22;51386;53.082;8.816;2023-05-10T01:41:49;18.90;43.30
64888;DHT22;51386;53.082;8.816;2023-05-10T01:44:27;18.90;43.20
64888;DHT22;51386;53.082;8.816;2023-05-10T01:47:05;18.80;43.90
64888;DHT22;51386;53.082;8.816;2023-05-10T01:49:41;18.80;43.50
64888;DHT22;51386;53.082;8.816;2023-05-10T01:52:12;18.80;43.40
64888;DHT22;51386;53.082;8.816;2023-05-10T01:54:48;18.80;43.70
64888;DHT22;51386;53.082;8.816;2023-05-10T01:57:22;18.70;43.80
64888;DHT22;51386;53.082;8.816;2023-05-10T01:59:55;18.70;44.10
64888;DHT22;51386;53.082;8.816;2023-05-10T02:02:24;18.60;43.60
64888;DHT22;51386;53.082;8.816;2023-05-10T02:04:56;18.60;43.90
64888;DHT22;51386;53.082;8.816;2023-05-10T02:07:24;18.60;44.30
64888;DHT22;51386;53.082;8.816;2023-05-10T02:09:53;18.60;44.40
64888;DHT22;51386;53.082;8.816;2023-05-10T02:12:22;18.60;44.30
64888;DHT22;51386;53.082;8.816;2023-05-10T02:14:51;18.60;44.70
64888;DHT22;51386;53.082;8.816;2023-05-10T02:17:21;18.60;45.00
64888;DHT22;51386;53.082;8.816;2023-05-10T02:19:49;18.60;44.90
64888;DHT22;51386;53.082;8.816;2023-05-10T02:22:20;18.60;44.70
64888;DHT22;51386;53.082;8.816;2023-05-10T02:24:49;18.60;44.80
64888;DHT22;51386;53.082;8.816;2023-05-10T02:27:18;18.50;45.00
64888;DHT22;51386;53.082;8.816;2023-05-10T02:29:48;18.60;45.30
64888;DHT22;51386;53.082;8.816;2023-05-10T02:32:16;18.50;45.30
64888;DHT22;51386;53.082;8.816;2023-05-10T02:34:45;18.50;45.30
64888;DHT22;51386;53.082;8.816;2023-05-10T02:37:20;18.50;45.40
64888;DHT22;51386;53.082;8.816;2023-05-10T02:39:49;18.40;45.50
64888;DHT22;51386;53.082;8.816;2023-05-10T02:42:19;18.40;45.90
64888;DHT22;51386;53.082;8.816;2023-05-10T02:44:54;18.40;46.20
64888;DHT22;51386;53.082;8.816;2023-05-10T02:47:26;18.40;46.20
64888;DHT22;51386;53.082;8.816;2023-05-10T02:49:53;18.40;46.30
64888;DHT22;51386;53.082;8.816;2023-05-10T02:52:24;18.40;46.30
64888;DHT22;51386;53.082;8.816;2023-05-10T02:54:55;18.30;46.30
64888;DHT22;51386;53.082;8.816;2023-05-10T02:57:31;18.30;46.60
64888;DHT22;51386;53.082;8.816;2023-05-10T03:00:00;18.30;47.50
64888;DHT22;51386;53.082;8.816;2023-05-10T03:02:31;18.30;48.10
64888;DHT22;51386;53.082;8.816;2023-05-10T03:04:58;18.30;49.10
64888;DHT22;51386;53.082;8.816;2023-05-10T03:07:26;18.30;49.30
64888;DHT22;51386;53.082;8.816;2023-05-10T03:09:53;18.20;49.70
64888;DHT22;51386;53.082;8.816;2023-05-10T03:12:27;18.20;50.10
64888;DHT22;51386;53.082;8.816;2023-05-10T03:15:06;18.20;50.20
64888;DHT22;51386;53.082;8.816;2023-05-10T03:17:46;18.20;50.40
64888;DHT22;51386;53.082;8.816;2023-05-10T03:20:22;18.10;50.40
64888;DHT22;51386;53.082;8.816;2023-05-10T03:23:04;18.10;50.50
64888;DHT22;51386;53.082;8.816;2023-05-10T03:25:37;18.00;50.40
64888;DHT22;51386;53.082;8.816;2023-05-10T03:28:07;18.00;50.80
64888;DHT22;51386;53.082;8.816;2023-05-10T03:30:35;17.90;50.70
64888;DHT22;51386;53.082;8.816;2023-05-10T03:33:06;17.90;50.80
64888;DHT22;51386;53.082;8.816;2023-05-10T03:35:33;17.90;51.20
64888;DHT22;51386;53.082;8.816;2023-05-10T03:38:02;17.90;51.30
64888;DHT22;51386;53.082;8.816;2023-05-10T03:40:29;17.90;51.50
64888;DHT22;51386;53.082;8.816;2023-05-10T03:42:57;17.90;51.90
64888;DHT22;51386;53.082;8.816;2023-05-10T03:45:25;17.90;52.00
64888;DHT22;51386;53.082;8.816;2023-05-10T03:47:51;17.80;52.40
64888;DHT22;51386;53.082;8.816;2023-05-10T03:50:18;17.90;52.80
64888;DHT22;51386;53.082;8.816;2023-05-10T03:52:46;17.80;52.70
64888;DHT22;51386;53.082;8.816;2023-05-10T03:55:14;17.80;52.90
64888;DHT22;51386;53.082;8.816;2023-05-10T03:57:41;17.80;52.90
64888;DHT22;51386;53.082;8.816;2023-05-10T04:00:09;17.80;52.90
64888;DHT22;51386;53.082;8.816;2023-05-10T04:02:37;17.80;53.00
64888;DHT22;51386;53.082;8.816;2023-05-10T04:05:05;17.80;53.30
64888;DHT22;51386;53.082;8.816;2023-05-10T04:07:32;17.80;53.70
64888;DHT22;51386;53.082;8.816;2023-05-10T04:09:58;17.70;54.20
64888;DHT22;51386;53.082;8.816;2023-05-10T04:12:27;17.70;54.30
64888;DHT22;51386;53.082;8.816;2023-05-10T04:14:54;17.70;54.20
64888;DHT22;51386;53.082;8.816;2023-05-10T04:17:20;17.70;54.50
64888;DHT22;51386;53.082;8.816;2023-05-10T04:19:47;17.60;54.80
64888;DHT22;51386;53.082;8.816;2023-05-10T04:22:14;17.60;55.30
64888;DHT22;51386;53.082;8.816;2023-05-10T04:24:42;17.60;55.40
64888;DHT22;51386;53.082;8.816;2023-05-10T04:27:09;17.50;55.60
64888;DHT22;51386;53.082;8.816;2023-05-10T04:29:37;17.50;56.30
64888;DHT22;51386;53.082;8.816;2023-05-10T04:32:04;17.50;56.40
64888;DHT22;51386;53.082;8.816;2023-05-10T04:34:31;17.40;56.30
64888;DHT22;51386;53.082;8.816;2023-05-10T04:37:00;17.40;56.70
64888;DHT22;51386;53.082;8.816;2023-05-10T04:39:27;17.40;56.90
64888;DHT22;51386;53.082;8.816;2023-05-10T04:41:54;17.30;57.30
64888;DHT22;51386;53.082;8.816;2023-05-10T04:44:21;17.30;58.60
64888;DHT22;51386;53.082;8.816;2023-05-10T04:46:49;17.20;58.60
64888;DHT22;51386;53.082;8.816;2023-05-10T04:49:16;17.20;59.10
64888;DHT22;51386;53.082;8.816;2023-05-10T04:51:44;17.20;59.30
64888;DHT22;51386;53.082;8.816;2023-05-10T04:54:11;17.10;59.40
64888;DHT22;51386;53.082;8.816;2023-05-10T04:56:38;17.10;60.20
64888;DHT22;51386;53.082;8.816;2023-05-10T04:59:05;17.10;60.90
64888;DHT22;51386;53.082;8.816;2023-05-10T05:01:32;17.00;61.30
64888;DHT22;51386;53.082;8.816;2023-05-10T05:04:00;17.00;61.80
64888;DHT22;51386;53.082;8.816;2023-05-10T05:06:28;16.90;62.00
64888;DHT22;51386;53.082;8.816;2023-05-10T05:08:55;16.90;62.60
64888;DHT22;51386;53.082;8.816;2023-05-10T05:11:21;16.80;62.80
64888;DHT22;51386;53.082;8.816;2023-05-10T05:13:48;16.70;62.90
64888;DHT22;51386;53.082;8.816;2023-05-10T05:16:15;16.70;63.50
64888;DHT22;51386;53.082;8.816;2023-05-10T05:18:43;16.60;63.90
64888;DHT22;51386;53.082;8.816;2023-05-10T05:21:20;16.50;63.90
64888;DHT22;51386;53.082;8.816;2023-05-10T05:23:48;16.40;65.50
64888;DHT22;51386;53.082;8.816;2023-05-10T05:26:14;16.40;66.70
64888;DHT22;51386;53.082;8.816;2023-05-10T05:28:42;16.30;67.30
64888;DHT22;51386;53.082;8.816;2023-05-10T05:31:09;16.30;67.70
64888;DHT22;51386;53.082;8.816;2023-05-10T05:33:36;16.20;67.70
64888;DHT22;51386;53.082;8.816;2023-05-10T05:36:05;16.20;68.80
64888;DHT22;51386;53.082;8.816;2023-05-10T05:38:34;16.20;69.20
64888;DHT22;51386;53.082;8.816;2023-05-10T05:41:01;16.20;69.70
64888;DHT22;51386;53.082;8.816;2023-05-10T05:43:28;16.20;70.30
64888;DHT22;51386;53.082;8.816;2023-05-10T05:45:55;16.20;71.00
64888;DHT22;51386;53.082;8.816;2023-05-10T05:48:24;16.20;71.00
64888;DHT22;51386;53.082;8.816;2023-05-10T05:50:54;16.20;71.60
64888;DHT22;51386;53.082;8.816;2023-05-10T05:53:22;16.20;71.50
64888;DHT22;51386;53.082;8.816;2023-05-10T05:55:55;16.20;71.40
64888;DHT22;51386;53.082;8.816;2023-05-10T05:58:23;16.20;71.70
64888;DHT22;51386;53.082;8.816;2023-05-10T06:00:50;16.20;72.10
64888;DHT22;51386;53.082;8.816;2023-05-10T06:03:18;16.20;72.50
64888;DHT22;51386;53.082;8.816;2023-05-10T06:05:47;16.20;73.70
64888;DHT22;51386;53.082;8.816;2023-05-10T06:08:14;16.20;73.20
64888;DHT22;51386;53.082;8.816;2023-05-10T06:10:41;16.20;73.90
64888;DHT22;51386;53.082;8.816;2023-05-10T06:13:09;16.20;73.90
64888;DHT22;51386;53.082;8.816;2023-05-10T06:15:37;16.10;73.90
64888;DHT22;51386;53.082;8.816;2023-05-10T06:18:04;16.10;75.40
64888;DHT22;51386;53.082;8.816;2023-05-10T06:20:32;16.10;75.30
64888;DHT22;51386;53.082;8.816;2023-05-10T06:22:59;16.00;75.80
64888;DHT22;51386;53.082;8.816;2023-05-10T06:25:26;16.00;76.80
64888;DHT22;51386;53.082;8.816;2023-05-10T06:27:53;15.90;76.90
64888;DHT22;51386;53.082;8.816;2023-05-10T06:30:25;16.00;77.20
64888;DHT22;51386;53.082;8.816;2023-05-10T06:32:55;16.00;77.90
64888;DHT22;51386;53.082;8.816;2023-05-10T06:35:22;16.00;78.30
64888;DHT22;51386;53.082;8.816;2023-05-10T06:37:50;15.90;77.50
64888;DHT22;51386;53.082;8.816;2023-05-10T06:40:17;15.90;78.00
64888;DHT22;51386;53.082;8.816;2023-05-10T06:42:45;15.90;78.20
64888;DHT22;51386;53.082;8.816;2023-05-10T06:45:14;15.80;78.80
64888;DHT22;51386;53.082;8.816;2023-05-10T06:47:43;15.70;79.40
64888;DHT22;51386;53.082;8.816;2023-05-10T06:50:11;15.70;80.20
64888;DHT22;51386;53.082;8.816;2023-05-10T06:52:38;15.80;81.40
64888;DHT22;51386;53.082;8.816;2023-05-10T06:55:06;15.80;81.90
64888;DHT22;51386;53.082;8.816;2023-05-10T06:57:35;15.80;81.90
64888;DHT22;51386;53.082;8.816;2023-05-10T07:00:02;15.80;82.50
64888;DHT22;51386;53.082;8.816;2023-05-10T07:02:32;15.80;83.00
64888;DHT22;51386;53.082;8.816;2023-05-10T07:05:01;15.80;82.50
64888;DHT22;51386;53.082;8.816;2023-05-10T07:07:29;15.90;83.10
64888;DHT22;51386;53.082;8.816;2023-05-10T07:09:56;16.00;84.00
64888;DHT22;51386;53.082;8.816;2023-05-10T07:12:24;16.00;83.90
64888;DHT22;51386;53.082;8.816;2023-05-10T07:14:51;16.20;83.80
64888;DHT22;51386;53.082;8.816;2023-05-10T07:17:18;16.20;83.90
64888;DHT22;51386;53.082;8.816;2023-05-10T07:19:46;16.30;83.40
64888;DHT22;51386;53.082;8.816;2023-05-10T07:22:14;16.30;83.50
64888;DHT22;51386;53.082;8.816;2023-05-10T07:24:41;16.40;83.80
64888;DHT22;51386;53.082;8.816;2023-05-10T07:27:08;16.40;84.20
64888;DHT22;51386;53.082;8.816;2023-05-10T07:29:36;16.40;84.20
64888;DHT22;51386;53.082;8.816;2023-05-10T07:32:04;16.40;83.90
64888;DHT22;51386;53.082;8.816;2023-05-10T07:34:34;16.50;84.40
64888;DHT22;51386;53.082;8.816;2023-05-10T07:37:01;16.50;85.20
64888;DHT22;51386;53.082;8.816;2023-05-10T07:39:29;16.60;85.40
64888;DHT22;51386;53.082;8.816;2023-05-10T07:41:56;16.70;85.80
64888;DHT22;51386;53.082;8.816;2023-05-10T07:44:24;16.80;85.80
64888;DHT22;51386;53.082;8.816;2023-05-10T07:46:51;16.90;85.70
64888;DHT22;51386;53.082;8.816;2023-05-10T07:49:18;17.00;85.20
64888;DHT22;51386;53.082;8.816;2023-05-10T07:51:45;17.10;84.90
64888;DHT22;51386;53.082;8.816;2023-05-10T07:54:12;17.20;84.80
64888;DHT22;51386;53.082;8.816;2023-05-10T07:56:41;17.30;84.50
64888;DHT22;51386;53.082;8.816;2023-05-10T07:59:16;17.30;84.50
64888;DHT22;51386;53.082;8.816;2023-05-10T08:01:44;17.40;84.70
64888;DHT22;51386;53.082;8.816;2023-05-10T08:04:11;17.40;84.60
64888;DHT22;51386;53.082;8.816;2023-05-10T08:06:39;17.50;85.20
64888;DHT22;51386;53.082;8.816;2023-05-10T08:09:06;17.60;85.30
64888;DHT22;51386;53.082;8.816;2023-05-10T08:11:33;17.60;84.90
64888;DHT22;51386;53.082;8.816;2023-05-10T08:14:05;17.70;84.60
64888;DHT22;51386;53.082;8.816;2023-05-10T08:16:31;17.90;84.10
64888;DHT22;51386;53.082;8.816;2023-05-10T08:18:59;17.90;83.40
64888;DHT22;51386;53.082;8.816;2023-05-10T08:21:26;18.00;82.80
64888;DHT22;51386;53.082;8.816;2023-05-10T08:23:53;18.00;82.70
64888;DHT22;51386;53.082;8.816;2023-05-10T08:26:20;18.00;82.90
64888;DHT22;51386;53.082;8.816;2023-05-10T08:28:48;18.00;83.00
64888;DHT22;51386;53.082;8.816;2023-05-10T08:31:16;18.10;82.90
64888;DHT22;51386;53.082;8.816;2023-05-10T08:33:44;18.20;82.90
64888;DHT22;51386;53.082;8.816;2023-05-10T08:36:18;18.20;82.40
64888;DHT22;51386;53.082;8.816;2023-05-10T08:38:50;18.30;82.40
64888;DHT22;51386;53.082;8.816;2023-05-10T08:41:19;18.30;82.20
64888;DHT22;51386;53.082;8.816;2023-05-10T08:43:47;18.50;82.10
64888;DHT22;51386;53.082;8.816;2023-05-10T08:46:18;18.50;81.70
64888;DHT22;51386;53.082;8.816;2023-05-10T08:48:48;18.60;81.60
64888;DHT22;51386;53.082;8.816;2023-05-10T08:51:18;18.70;81.20
64888;DHT22;51386;53.082;8.816;2023-05-10T08:53:46;18.60;80.20
64888;DHT22;51386;53.082;8.816;2023-05-10T08:56:15;18.60;80.20
64888;DHT22;51386;53.082;8.816;2023-05-10T08:58:42;18.60;80.30
64888;DHT22;51386;53.082;8.816;2023-05-10T09:01:10;18.60;80.30
64888;DHT22;51386;53.082;8.816;2023-05-10T09:03:41;18.70;80.20
64888;DHT22;51386;53.082;8.816;2023-05-10T09:06:11;18.80;80.20
64888;DHT22;51386;53.082;8.816;2023-05-10T09:08:40;18.90;79.20
64888;DHT22;51386;53.082;8.816;2023-05-10T09:11:08;19.10;78.80
64888;DHT22;51386;53.082;8.816;2023-05-10T09:13:36;19.30;77.80
64888;DHT22;51386;53.082;8.816;2023-05-10T09:16:04;19.60;76.80
64888;DHT22;51386;53.082;8.816;2023-05-10T09:18:47;19.80;75.80
64888;DHT22;51386;53.082;8.816;2023-05-10T09:21:16;20.00;74.90
64888;DHT22;51386;53.082;8.816;2023-05-10T09:23:43;20.10;74.50
64888;DHT22;51386;53.082;8.816;2023-05-10T09:26:13;20.30;74.30
64888;DHT22;51386;53.082;8.816;2023-05-10T09:28:50;20.50;72.80
64888;DHT22;51386;53.082;8.816;2023-05-10T09:31:18;20.70;71.50
64888;DHT22;51386;53.082;8.816;2023-05-10T09:33:48;20.80;70.20
64888;DHT22;51386;53.082;8.816;2023-05-10T09:36:16;20.70;69.20
64888;DHT22;51386;53.082;8.816;2023-05-10T09:38:47;20.60;68.90
64888;DHT22;51386;53.082;8.816;2023-05-10T09:41:16;20.50;69.20
64888;DHT22;51386;53.082;8.816;2023-05-10T09:43:44;20.40;69.70
64888;DHT22;51386;53.082;8.816;2023-05-10T09:46:12;20.20;70.40
64888;DHT22;51386;53.082;8.816;2023-05-10T09:48:42;20.10;71.20
64888;DHT22;51386;53.082;8.816;2023-05-10T09:51:18;20.00;70.90
64888;DHT22;51386;53.082;8.816;2023-05-10T09:53:46;19.90;71.90
64888;DHT22;51386;53.082;8.816;2023-05-10T09:56:13;19.80;72.10
64888;DHT22;51386;53.082;8.816;2023-05-10T09:58:40;19.70;72.80
64888;DHT22;51386;53.082;8.816;2023-05-10T10:01:11;19.70;72.70
64888;DHT22;51386;53.082;8.816;2023-05-10T10:03:42;19.80;73.20
64888;DHT22;51386;53.082;8.816;2023-05-10T10:06:10;19.90;73.40
64888;DHT22;51386;53.082;8.816;2023-05-10T10:08:56;20.00;73.30
64888;DHT22;51386;53.082;8.816;2023-05-10T10:11:23;20.20;72.20
64888;DHT22;51386;53.082;8.816;2023-05-10T10:13:51;20.30;71.40
64888;DHT22;51386;53.082;8.816;2023-05-10T10:16:18;20.40;70.70
64888;DHT22;51386;53.082;8.816;2023-05-10T10:18:46;20.40;70.50
64888;DHT22;51386;53.082;8.816;2023-05-10T10:21:15;20.40;71.10
64888;DHT22;51386;53.082;8.816;2023-05-10T10:23:42;20.20;71.50
64888;DHT22;51386;53.082;8.816;2023-05-10T10:26:10;20.10;72.10
64888;DHT22;51386;53.082;8.816;2023-05-10T10:28:43;19.90;72.80
64888;DHT22;51386;53.082;8.816;2023-05-10T10:31:26;19.70;73.00
64888;DHT22;51386;53.082;8.816;2023-05-10T10:34:06;19.40;74.20
64888;DHT22;51386;53.082;8.816;2023-05-10T10:36:42;19.30;74.90
64888;DHT22;51386;53.082;8.816;2023-05-10T10:39:11;19.20;76.10
64888;DHT22;51386;53.082;8.816;2023-05-10T10:41:40;19.10;76.60
64888;DHT22;51386;53.082;8.816;2023-05-10T10:44:36;19.20;77.50
64888;DHT22;51386;53.082;8.816;2023-05-10T10:47:23;19.40;77.40
64888;DHT22;51386;53.082;8.816;2023-05-10T10:49:54;19.70;76.90
64888;DHT22;51386;53.082;8.816;2023-05-10T10:52:35;20.10;75.80
64888;DHT22;51386;53.082;8.816;2023-05-10T10:55:05;20.40;73.40
64888;DHT22;51386;53.082;8.816;2023-05-10T10:57:48;20.60;73.00
64888;DHT22;51386;53.082;8.816;2023-05-10T11:00:28;20.80;71.70
64888;DHT22;51386;53.082;8.816;2023-05-10T11:02:59;21.10;71.50
64888;DHT22;51386;53.082;8.816;2023-05-10T11:05:41;21.20;71.10
64888;DHT22;51386;53.082;8.816;2023-05-10T11:08:28;21.40;69.00
64888;DHT22;51386;53.082;8.816;2023-05-10T11:11:05;21.50;68.20
64888;DHT22;51386;53.082;8.816;2023-05-10T11:13:40;21.40;67.20
64888;DHT22;51386;53.082;8.816;2023-05-10T11:16:16;21.30;67.30
64888;DHT22;51386;53.082;8.816;2023-05-10T11:18:57;21.30;67.20
64888;DHT22;51386;53.082;8.816;2023-05-10T11:21:29;21.10;68.00
64888;DHT22;51386;53.082;8.816;2023-05-10T11:24:00;21.00;67.40
64888;DHT22;51386;53.082;8.816;2023-05-10T11:26:34;20.90;67.90
64888;DHT22;51386;53.082;8.816;2023-05-10T11:29:02;20.90;68.60
64888;DHT22;51386;53.082;8.816;2023-05-10T11:31:31;20.90;68.40
64888;DHT22;51386;53.082;8.816;2023-05-10T11:34:00;20.90;68.40
64888;DHT22;51386;53.082;8.816;2023-05-10T11:36:31;20.90;68.40
64888;DHT22;51386;53.082;8.816;2023-05-10T11:39:02;21.00;68.30
64888;DHT22;51386;53.082;8.816;2023-05-10T11:41:30;21.10;68.70
64888;DHT22;51386;53.082;8.816;2023-05-10T11:43:58;21.20;68.80
64888;DHT22;51386;53.082;8.816;2023-05-10T11:46:27;21.20;67.70
64888;DHT22;51386;53.082;8.816;2023-05-10T11:48:58;21.30;67.40
64888;DHT22;51386;53.082;8.816;2023-05-10T11:51:28;21.30;67.60
64888;DHT22;51386;53.082;8.816;2023-05-10T11:53:56;21.20;67.50
64888;DHT22;51386;53.082;8.816;2023-05-10T11:56:25;21.20;67.80
64888;DHT22;51386;53.082;8.816;2023-05-10T11:58:54;21.00;68.60
64888;DHT22;51386;53.082;8.816;2023-05-10T12:01:23;20.90;69.50
64888;DHT22;51386;53.082;8.816;2023-05-10T12:03:51;20.80;70.60
64888;DHT22;51386;53.082;8.816;2023-05-10T12:06:21;20.60;71.50
64888;DHT22;51386;53.082;8.816;2023-05-10T12:08:49;20.40;73.00
64888;DHT22;51386;53.082;8.816;2023-05-10T12:11:19;20.20;74.10
64888;DHT22;51386;53.082;8.816;2023-05-10T12:13:50;20.00;74.80
64888;DHT22;51386;53.082;8.816;2023-05-10T12:16:18;19.80;75.50
64888;DHT22;51386;53.082;8.816;2023-05-10T12:18:48;19.80;76.60
64888;DHT22;51386;53.082;8.816;2023-05-10T12:21:18;19.80;77.50
64888;DHT22;51386;53.082;8.816;2023-05-10T12:23:47;19.80;77.50
64888;DHT22;51386;53.082;8.816;2023-05-10T12:26:16;20.00;77.10
64888;DHT22;51386;53.082;8.816;2023-05-10T12:28:43;20.00;76.60
64888;DHT22;51386;53.082;8.816;2023-05-10T12:31:12;20.10;76.50
64888;DHT22;51386;53.082;8.816;2023-05-10T12:33:41;20.10;76.70
64888;DHT22;51386;53.082;8.816;2023-05-10T12:36:09;20.00;76.40
64888;DHT22;51386;53.082;8.816;2023-05-10T12:38:40;20.00;77.10
64888;DHT22;51386;53.082;8.816;2023-05-10T12:41:10;20.00;76.70
64888;DHT22;51386;53.082;8.816;2023-05-10T12:43:40;20.00;76.60
64888;DHT22;51386;53.082;8.816;2023-05-10T12:46:08;20.10;76.50
64888;DHT22;51386;53.082;8.816;2023-05-10T12:48:39;20.20;76.10
64888;DHT22;51386;53.082;8.816;2023-05-10T12:51:07;20.20;75.80
64888;DHT22;51386;53.082;8.816;2023-05-10T12:53:39;20.20;75.40
64888;DHT22;51386;53.082;8.816;2023-05-10T12:56:10;20.10;75.50
64888;DHT22;51386;53.082;8.816;2023-05-10T12:58:38;20.00;74.70
64888;DHT22;51386;53.082;8.816;2023-05-10T13:01:05;19.90;74.80
64888;DHT22;51386;53.082;8.816;2023-05-10T13:03:32;19.80;75.20
64888;DHT22;51386;53.082;8.816;2023-05-10T13:06:00;19.80;75.90
64888;DHT22;51386;53.082;8.816;2023-05-10T13:08:27;19.80;76.80
64888;DHT22;51386;53.082;8.816;2023-05-10T13:10:59;19.90;76.40
64888;DHT22;51386;53.082;8.816;2023-05-10T13:13:26;20.10;76.00
64888;DHT22;51386;53.082;8.816;2023-05-10T13:15:53;20.20;75.70
64888;DHT22;51386;53.082;8.816;2023-05-10T13:18:20;20.20;74.20
64888;DHT22;51386;53.082;8.816;2023-05-10T13:20:47;20.30;73.90
64888;DHT22;51386;53.082;8.816;2023-05-10T13:23:17;20.30;73.80
64888;DHT22;51386;53.082;8.816;2023-05-10T13:25:44;20.30;73.90
64888;DHT22;51386;53.082;8.816;2023-05-10T13:28:11;20.30;74.20
64888;DHT22;51386;53.082;8.816;2023-05-10T13:30:38;20.40;74.70
64888;DHT22;51386;53.082;8.816;2023-05-10T13:33:05;20.50;73.90
64888;DHT22;51386;53.082;8.816;2023-05-10T13:35:31;20.80;73.20
64888;DHT22;51386;53.082;8.816;2023-05-10T13:37:58;21.10;72.30
64888;DHT22;51386;53.082;8.816;2023-05-10T13:40:27;21.20;70.70
64888;DHT22;51386;53.082;8.816;2023-05-10T13:42:54;21.30;69.60
64888;DHT22;51386;53.082;8.816;2023-05-10T13:45:21;21.30;70.10
64888;DHT22;51386;53.082;8.816;2023-05-10T13:47:48;21.30;68.90
64888;DHT22;51386;53.082;8.816;2023-05-10T13:50:16;21.30;68.90
64888;DHT22;51386;53.082;8.816;2023-05-10T13:52:43;21.20;68.30
64888;DHT22;51386;53.082;8.816;2023-05-10T13:55:10;21.20;68.10
64888;DHT22;51386;53.082;8.816;2023-05-10T13:57:41;21.10;68.20
64888;DHT22;51386;53.082;8.816;2023-05-10T14:00:08;21.10;68.30
64888;DHT22;51386;53.082;8.816;2023-05-10T14:02:36;21.00;68.60
64888;DHT22;51386;53.082;8.816;2023-05-10T14:05:04;21.00;68.30
64888;DHT22;51386;53.082;8.816;2023-05-10T14:07:32;21.00;68.60
64888;DHT22;51386;53.082;8.816;2023-05-10T14:09:59;20.90;68.80
64888;DHT22;51386;53.082;8.816;2023-05-10T14:12:26;20.90;68.90
64888;DHT22;51386;53.082;8.816;2023-05-10T14:14:54;20.90;69.10
64888;DHT22;51386;53.082;8.816;2023-05-10T14:17:21;20.90;69.60
64888;DHT22;51386;53.082;8.816;2023-05-10T14:19:49;21.00;69.70
64888;DHT22;51386;53.082;8.816;2023-05-10T14:22:16;21.00;69.50
64888;DHT22;51386;53.082;8.816;2023-05-10T14:24:42;21.00;69.40
64888;DHT22;51386;53.082;8.816;2023-05-10T14:27:13;21.10;69.20
64888;DHT22;51386;53.082;8.816;2023-05-10T14:29:40;21.20;68.90
64888;DHT22;51386;53.082;8.816;2023-05-10T14:32:09;21.40;69.00
64888;DHT22;51386;53.082;8.816;2023-05-10T14:34:36;21.60;68.80
64888;DHT22;51386;53.082;8.816;2023-05-10T14:37:03;21.80;68.00
64888;DHT22;51386;53.082;8.816;2023-05-10T14:39:30;22.00;67.30
64888;DHT22;51386;53.082;8.816;2023-05-10T14:41:57;22.10;66.90
64888;DHT22;51386;53.082;8.816;2023-05-10T14:44:25;22.30;66.50
64888;DHT22;51386;53.082;8.816;2023-05-10T14:46:52;22.50;66.20
64888;DHT22;51386;53.082;8.816;2023-05-10T14:49:21;22.60;65.80
64888;DHT22;51386;53.082;8.816;2023-05-10T14:51:49;22.80;65.00
64888;DHT22;51386;53.082;8.816;2023-05-10T14:54:16;22.90;64.20
64888;DHT22;51386;53.082;8.816;2023-05-10T14:56:43;22.90;63.60
64888;DHT22;51386;53.082;8.816;2023-05-10T14:59:10;22.80;63.00
64888;DHT22;51386;53.082;8.816;2023-05-10T15:01:37;22.80;63.00
64888;DHT22;51386;53.082;8.816;2023-05-10T15:04:05;22.70;63.10
64888;DHT22;51386;53.082;8.816;2023-05-10T15:06:41;22.60;63.10
64888;DHT22;51386;53.082;8.816;2023-05-10T15:09:08;22.40;63.30
64888;DHT22;51386;53.082;8.816;2023-05-10T15:11:35;22.20;63.50
64888;DHT22;51386;53.082;8.816;2023-05-10T15:14:02;22.20;64.10
64888;DHT22;51386;53.082;8.816;2023-05-10T15:16:29;22.10;64.30
64888;DHT22;51386;53.082;8.816;2023-05-10T15:19:01;22.00;64.60
64888;DHT22;51386;53.082;8.816;2023-05-10T15:21:28;21.80;64.40
64888;DHT22;51386;53.082;8.816;2023-05-10T15:23:57;21.70;64.90
64888;DHT22;51386;53.082;8.816;2023-05-10T15:26:24;21.60;65.20
64888;DHT22;51386;53.082;8.816;2023-05-10T15:28:52;21.50;66.10
64888;DHT22;51386;53.082;8.816;2023-05-10T15:31:19;21.30;67.00
64888;DHT22;51386;53.082;8.816;2023-05-10T15:33:46;21.20;67.60
64888;DHT22;51386;53.082;8.816;2023-05-10T15:36:13;21.10;68.30
64888;DHT22;51386;53.082;8.816;2023-05-10T15:38:40;21.00;68.60
64888;DHT22;51386;53.082;8.816;2023-05-10T15:41:08;21.00;68.80
64888;DHT22;51386;53.082;8.816;2023-05-10T15:43:35;21.00;68.70